Time;durP1;ratioP1;P1;durP2;ratioP2;P2;SDS_P1;SDS_P2;PMS_P1;PMS_P2;Temp;Humidity;BMP_temperature;BMP_pressure;BME280_temperature;BME280_humidity;BME280_pressure;Samples;Min_cycle;Max_cycle;Signal;HPM_P1;HPM_P2
2023/12/21 00:00:57;;;;;;;1.00;0.90;;;;;;;5.42;100.00;97933.75;5088153;28;20674;-80
2023/12/21 00:03:23;;;;;;;1.47;0.93;;;;;;;5.45;100.00;97928.31;5087293;28;20666;-80
2023/12/21 00:05:51;;;;;;;1.00;0.90;;;;;;;5.44;100.00;97926.63;5088381;28;20215;-80
2023/12/21 00:08:17;;;;;;;3.20;0.90;;;;;;;5.45;100.00;97933.56;5088365;28;20217;-80
2023/12/21 00:10:44;;;;;;;1.17;0.70;;;;;;;5.49;100.00;97929.03;5087265;28;20707;-80
2023/12/21 00:13:10;;;;;;;0.70;0.70;;;;;;;5.48;100.00;97920.31;5087927;28;20212;-80
2023/12/21 00:15:36;;;;;;;1.77;0.70;;;;;;;5.53;100.00;97909.59;5088231;28;20217;-80
2023/12/21 00:18:05;;;;;;;1.27;0.73;;;;;;;5.49;100.00;97913.31;5088477;28;20200;-80
2023/12/21 00:20:31;;;;;;;1.63;0.90;;;;;;;5.47;100.00;97926.50;5087125;28;20236;-80
2023/12/21 00:22:58;;;;;;;1.00;0.70;;;;;;;5.44;100.00;97908.28;5087769;28;20245;-80
2023/12/21 00:25:24;;;;;;;0.87;0.70;;;;;;;5.45;100.00;97907.34;5086995;28;20216;-80
2023/12/21 00:27:50;;;;;;;0.80;0.60;;;;;;;5.42;100.00;97898.81;5087596;28;20225;-80
2023/12/21 00:30:17;;;;;;;1.50;0.70;;;;;;;5.37;100.00;97899.06;5086984;28;20282;-80
2023/12/21 00:32:44;;;;;;;0.83;0.50;;;;;;;5.44;100.00;97902.22;5087612;28;20264;-80
2023/12/21 00:35:11;;;;;;;0.90;0.60;;;;;;;5.47;100.00;97907.28;5087490;28;20230;-80
2023/12/21 00:37:38;;;;;;;1.10;0.80;;;;;;;5.42;100.00;97901.44;5087686;28;20268;-80
2023/12/21 00:40:05;;;;;;;0.63;0.63;;;;;;;5.43;100.00;97914.47;5087179;28;20219;-80
2023/12/21 00:42:32;;;;;;;0.60;0.60;;;;;;;5.42;100.00;97901.44;5087275;28;20229;-80
2023/12/21 00:44:58;;;;;;;0.60;0.60;;;;;;;5.45;100.00;97902.13;5086891;28;20204;-80
2023/12/21 00:47:25;;;;;;;0.50;0.50;;;;;;;5.40;100.00;97904.16;5087097;28;20228;-80
2023/12/21 00:49:52;;;;;;;0.67;0.50;;;;;;;5.42;100.00;97902.28;5087039;28;20205;-80
2023/12/21 00:52:19;;;;;;;1.43;0.53;;;;;;;5.47;100.00;97894.19;5087463;28;20231;-80
2023/12/21 00:54:46;;;;;;;0.40;0.40;;;;;;;5.46;100.00;97898.59;5085937;28;20206;-80
2023/12/21 00:57:12;;;;;;;0.40;0.40;;;;;;;5.50;100.00;97894.03;5085215;28;20209;-80
2023/12/21 00:59:39;;;;;;;0.50;0.40;;;;;;;5.61;100.00;97881.22;5084584;28;20210;-80
2023/12/21 01:02:05;;;;;;;0.57;0.57;;;;;;;5.58;100.00;97891.84;5084269;28;20257;-80
2023/12/21 01:04:32;;;;;;;0.40;0.40;;;;;;;5.58;100.00;97882.22;5085294;28;20209;-80
2023/12/21 01:06:58;;;;;;;0.40;0.40;;;;;;;5.64;100.00;97875.78;5084398;28;20610;-80
2023/12/21 01:09:26;;;;;;;0.40;0.40;;;;;;;5.65;100.00;97867.84;5084712;28;20206;-80
2023/12/21 01:11:52;;;;;;;0.30;0.30;;;;;;;5.70;100.00;97859.72;5085389;28;20245;-80
2023/12/21 01:14:19;;;;;;;0.80;0.50;;;;;;;5.73;100.00;97863.03;5084343;28;20220;-80
2023/12/21 01:16:45;;;;;;;0.43;0.33;;;;;;;5.70;100.00;97852.72;5084256;28;20611;-80
2023/12/21 01:19:12;;;;;;;0.40;0.40;;;;;;;5.75;100.00;97844.59;5083772;28;20216;-80
2023/12/21 01:21:38;;;;;;;0.30;0.30;;;;;;;5.78;100.00;97826.94;5084223;28;20233;-80
2023/12/21 01:24:06;;;;;;;0.40;0.40;;;;;;;5.83;100.00;97824.94;5084086;28;20648;-80
2023/12/21 01:26:33;;;;;;;0.30;0.30;;;;;;;5.78;100.00;97824.31;5084184;28;20243;-80
2023/12/21 01:29:00;;;;;;;0.47;0.47;;;;;;;5.76;100.00;97826.16;5083895;28;20211;-80
2023/12/21 01:31:26;;;;;;;3.20;0.70;;;;;;;5.73;100.00;97831.56;5084476;28;20236;-80
2023/12/21 01:33:53;;;;;;;0.40;0.40;;;;;;;5.76;100.00;97833.19;5084021;28;20224;-80
2023/12/21 01:36:19;;;;;;;0.63;0.40;;;;;;;5.74;100.00;97819.31;5083750;28;20210;-80
2023/12/21 01:38:46;;;;;;;0.40;0.40;;;;;;;5.73;100.00;97835.97;5083482;28;20218;-80
2023/12/21 01:41:12;;;;;;;0.40;0.40;;;;;;;5.70;100.00;97818.66;5083239;28;20294;-80
2023/12/21 01:43:40;;;;;;;0.87;0.30;;;;;;;5.77;100.00;97809.50;5082726;28;20584;-80
2023/12/21 01:46:08;;;;;;;0.70;0.40;;;;;;;5.74;100.00;97820.16;5082998;28;20210;-80
2023/12/21 01:48:35;;;;;;;2.73;0.40;;;;;;;5.77;100.00;97809.50;5083564;28;20234;-80
2023/12/21 01:51:02;;;;;;;0.40;0.40;;;;;;;5.76;100.00;97807.81;5083997;28;20205;-80
2023/12/21 01:53:30;;;;;;;2.33;0.40;;;;;;;5.71;100.00;97801.97;5082903;28;20213;-80
2023/12/21 01:55:57;;;;;;;0.40;0.30;;;;;;;5.76;100.00;97785.97;5082520;28;20216;-79
2023/12/21 01:58:24;;;;;;;0.40;0.37;;;;;;;5.83;100.00;97777.72;5082275;28;20297;-80
2023/12/21 02:00:52;;;;;;;0.30;0.30;;;;;;;5.85;100.00;97775.00;5083415;28;20214;-80
2023/12/21 02:03:19;;;;;;;0.47;0.40;;;;;;;5.82;100.00;97765.56;5083044;28;20244;-80
2023/12/21 02:05:45;;;;;;;0.30;0.30;;;;;;;5.79;100.00;97765.69;5084689;28;20229;-80
2023/12/21 02:08:12;;;;;;;0.60;0.40;;;;;;;5.81;100.00;97766.47;5085060;28;20235;-80
2023/12/21 02:10:40;;;;;;;0.40;0.40;;;;;;;5.89;100.00;97760.78;5084729;28;20209;-80
2023/12/21 02:13:07;;;;;;;0.33;0.33;;;;;;;5.93;100.00;97752.66;5086247;28;20232;-80
2023/12/21 02:15:34;;;;;;;0.30;0.30;;;;;;;5.91;100.00;97741.41;5085416;28;20236;-80
2023/12/21 02:18:04;;;;;;;0.40;0.40;;;;;;;5.89;100.00;97738.06;5085309;28;20208;-80
2023/12/21 02:20:31;;;;;;;0.87;0.40;;;;;;;5.93;100.00;97750.03;5084959;28;20223;-80
2023/12/21 02:23:01;;;;;;;0.30;0.30;;;;;;;5.92;100.00;97739.66;5085415;28;20232;-80
2023/12/21 02:25:29;;;;;;;0.33;0.33;;;;;;;5.91;100.00;97743.19;5086174;28;20205;-80
2023/12/21 02:27:55;;;;;;;0.30;0.30;;;;;;;5.96;100.00;97734.13;5086095;28;20306;-80
2023/12/21 02:30:22;;;;;;;0.40;0.40;;;;;;;5.93;100.00;97725.59;5086790;28;20214;-80
2023/12/21 02:32:48;;;;;;;0.40;0.30;;;;;;;5.89;100.00;97716.22;5087450;28;20240;-80
2023/12/21 02:35:15;;;;;;;0.40;0.40;;;;;;;5.87;100.00;97716.28;5087399;28;20217;-80
2023/12/21 02:37:42;;;;;;;0.30;0.30;;;;;;;5.88;100.00;97711.91;5088283;28;20296;-80
2023/12/21 02:40:09;;;;;;;0.40;0.40;;;;;;;5.84;100.00;97716.47;5088006;28;20214;-80
2023/12/21 02:42:37;;;;;;;0.30;0.30;;;;;;;5.91;100.00;97717.81;5087119;28;20234;-80
2023/12/21 02:45:04;;;;;;;0.30;0.30;;;;;;;5.97;100.00;97711.38;5086204;28;20207;-80
2023/12/21 02:47:30;;;;;;;0.40;0.40;;;;;;;5.95;100.00;97703.59;5086251;28;20237;-80
2023/12/21 02:49:57;;;;;;;0.40;0.30;;;;;;;5.98;100.00;97698.16;5087055;28;20207;-80
2023/12/21 02:52:23;;;;;;;0.40;0.40;;;;;;;5.98;100.00;97695.53;5086332;28;20614;-80
2023/12/21 02:54:50;;;;;;;0.40;0.40;;;;;;;5.98;100.00;97692.91;5086631;28;20276;-80
2023/12/21 02:57:16;;;;;;;0.30;0.30;;;;;;;6.00;100.00;97691.06;5086707;28;20213;-80
2023/12/21 02:59:44;;;;;;;0.30;0.30;;;;;;;5.96;100.00;97676.44;5086528;28;20206;-80
2023/12/21 03:02:11;;;;;;;0.40;0.40;;;;;;;5.98;100.00;97661.44;5085728;28;20250;-80
2023/12/21 03:04:37;;;;;;;0.30;0.30;;;;;;;5.95;100.00;97640.66;5085539;28;20224;-80
2023/12/21 03:07:04;;;;;;;0.30;0.30;;;;;;;6.02;100.00;97641.97;5085465;28;20216;-80
2023/12/21 03:09:30;;;;;;;0.30;0.30;;;;;;;6.08;100.00;97641.63;5089483;28;20531;-80
2023/12/21 03:11:57;;;;;;;0.30;0.30;;;;;;;6.04;100.00;97636.66;5089829;28;20309;-80
2023/12/21 03:14:23;;;;;;;0.30;0.30;;;;;;;6.06;100.00;97638.25;5090065;28;20642;-80
2023/12/21 03:16:51;;;;;;;0.30;0.30;;;;;;;6.14;100.00;97629.91;5090293;28;20222;-80
2023/12/21 03:19:18;;;;;;;0.30;0.30;;;;;;;6.14;100.00;97630.78;5089425;28;20223;-80
2023/12/21 03:21:44;;;;;;;0.20;0.20;;;;;;;6.16;100.00;97628.06;5089387;28;20233;-80
2023/12/21 03:24:11;;;;;;;0.20;0.20;;;;;;;6.17;100.00;97622.69;5089968;28;20214;-80
2023/12/21 03:26:37;;;;;;;0.30;0.30;;;;;;;6.24;100.00;97621.38;5089196;28;20271;-80
2023/12/21 03:29:04;;;;;;;0.23;0.23;;;;;;;6.21;100.00;97613.72;5089487;28;20235;-80
2023/12/21 03:31:30;;;;;;;0.30;0.30;;;;;;;6.15;100.00;97621.97;5088897;28;20238;-80
2023/12/21 03:33:58;;;;;;;0.20;0.20;;;;;;;6.12;100.00;97619.50;5089102;28;20220;-80
2023/12/21 03:36:26;;;;;;;0.20;0.20;;;;;;;6.16;100.00;97628.88;5088640;28;20215;-80
2023/12/21 03:38:53;;;;;;;0.30;0.30;;;;;;;6.15;100.00;97626.34;5089236;28;20270;-80
2023/12/21 03:41:19;;;;;;;0.30;0.30;;;;;;;6.24;100.00;97610.06;5089135;28;20329;-80
2023/12/21 03:43:46;;;;;;;0.23;0.23;;;;;;;6.22;100.00;97607.53;5089315;28;20220;-80
2023/12/21 03:46:12;;;;;;;0.20;0.20;;;;;;;6.23;100.00;97608.38;5089203;28;20215;-80
2023/12/21 03:48:39;;;;;;;0.60;0.30;;;;;;;6.22;100.00;97596.22;5085485;28;20604;-77
2023/12/21 03:51:07;;;;;;;0.50;0.30;;;;;;;6.20;100.00;97611.19;5087351;28;20230;-80
2023/12/21 03:53:33;;;;;;;0.30;0.30;;;;;;;6.18;100.00;97616.50;5089465;28;20208;-80
2023/12/21 03:56:00;;;;;;;0.20;0.20;;;;;;;6.18;100.00;97611.25;5088735;28;20215;-80
2023/12/21 03:58:26;;;;;;;0.30;0.30;;;;;;;6.19;100.00;97612.97;5089926;28;20203;-80
2023/12/21 04:00:53;;;;;;;0.40;0.40;;;;;;;6.17;100.00;97608.75;5089216;28;20211;-80
2023/12/21 04:03:19;;;;;;;0.30;0.30;;;;;;;6.18;100.00;97590.28;5089883;28;20237;-80
2023/12/21 04:05:46;;;;;;;0.40;0.40;;;;;;;6.25;100.00;97586.38;5089574;28;20225;-80
2023/12/21 04:08:15;;;;;;;0.20;0.20;;;;;;;6.18;100.00;97600.78;5088938;28;20705;-80
2023/12/21 04:10:41;;;;;;;0.60;0.40;;;;;;;6.14;100.00;97615.03;5089702;28;20212;-80
2023/12/21 04:13:07;;;;;;;0.67;0.40;;;;;;;6.13;100.00;97600.22;5088964;28;20611;-80
2023/12/21 04:15:34;;;;;;;0.20;0.20;;;;;;;6.11;100.00;97588.97;5088417;28;20218;-80
2023/12/21 04:18:00;;;;;;;0.27;0.27;;;;;;;6.09;100.00;97580.34;5088461;28;20209;-80
2023/12/21 04:20:27;;;;;;;0.40;0.40;;;;;;;6.09;100.00;97585.59;5087277;28;20217;-80
2023/12/21 04:22:53;;;;;;;0.20;0.20;;;;;;;6.09;100.00;97601.34;5088330;28;20232;-80
2023/12/21 04:25:22;;;;;;;0.73;0.30;;;;;;;6.12;100.00;97590.63;5087582;28;20214;-80
2023/12/21 04:27:48;;;;;;;0.20;0.20;;;;;;;6.10;100.00;97587.28;5088164;28;20238;-80
2023/12/21 04:30:15;;;;;;;0.30;0.30;;;;;;;6.10;100.00;97579.41;5087899;28;20220;-80
2023/12/21 04:32:42;;;;;;;0.30;0.30;;;;;;;6.05;100.00;97594.56;5087710;28;20230;-80
2023/12/21 04:35:10;;;;;;;0.33;0.33;;;;;;;6.00;100.00;97586.16;5087842;28;20305;-80
2023/12/21 04:37:36;;;;;;;0.77;0.40;;;;;;;6.05;100.00;97581.47;5087495;28;20217;-81
2023/12/21 04:40:04;;;;;;;1.03;0.40;;;;;;;6.04;100.00;97571.91;5088281;28;20220;-80
2023/12/21 04:42:32;;;;;;;0.30;0.30;;;;;;;6.04;100.00;97571.91;5087644;28;20276;-80
2023/12/21 04:44:58;;;;;;;0.20;0.20;;;;;;;6.00;100.00;97570.41;5087861;28;20214;-80
2023/12/21 04:47:24;;;;;;;0.30;0.30;;;;;;;6.03;100.00;97570.22;5086959;28;20211;-80
2023/12/21 04:49:51;;;;;;;0.30;0.30;;;;;;;6.00;100.00;97561.69;5087258;28;20221;-80
2023/12/21 04:52:19;;;;;;;0.77;0.40;;;;;;;6.04;100.00;97566.66;5087117;28;20244;-82
2023/12/21 04:54:46;;;;;;;0.20;0.20;;;;;;;6.02;100.00;97568.53;5087462;28;20239;-80
2023/12/21 04:57:12;;;;;;;0.30;0.30;;;;;;;6.02;100.00;97567.69;5086624;28;20222;-80
2023/12/21 04:59:41;;;;;;;0.20;0.20;;;;;;;6.07;100.00;97549.91;5087984;28;20222;-80
2023/12/21 05:02:08;;;;;;;0.20;0.20;;;;;;;6.08;100.00;97541.09;5087351;28;20304;-80
2023/12/21 05:04:34;;;;;;;0.50;0.30;;;;;;;6.06;100.00;97533.34;5086985;28;20217;-80
2023/12/21 05:07:01;;;;;;;0.20;0.20;;;;;;;6.05;100.00;97518.50;5087404;28;20195;-79
2023/12/21 05:09:28;;;;;;;0.30;0.30;;;;;;;6.09;100.00;97530.50;5086999;28;20230;-79
2023/12/21 05:11:55;;;;;;;0.40;0.40;;;;;;;6.09;100.00;97543.63;5085960;28;20234;-80
2023/12/21 05:14:21;;;;;;;0.40;0.40;;;;;;;6.13;100.00;97550.38;5086649;28;20214;-79
2023/12/21 05:16:50;;;;;;;0.30;0.30;;;;;;;6.12;100.00;97537.34;5082559;28;20218;-79
2023/12/21 05:19:17;;;;;;;0.30;0.30;;;;;;;6.16;100.00;97544.94;5085595;28;20668;-79
2023/12/21 05:21:44;;;;;;;0.20;0.20;;;;;;;6.15;100.00;97517.03;5084944;28;20300;-80
2023/12/21 05:24:10;;;;;;;0.30;0.30;;;;;;;6.19;100.00;97529.03;5085325;28;20215;-80
2023/12/21 05:26:36;;;;;;;0.30;0.30;;;;;;;6.18;100.00;97524.69;5084686;28;20588;-80
2023/12/21 05:29:03;;;;;;;0.50;0.30;;;;;;;6.24;100.00;97526.09;5085270;28;20580;-79
2023/12/21 05:31:30;;;;;;;0.30;0.30;;;;;;;6.26;100.00;97508.47;5084372;28;20839;-79
2023/12/21 05:33:57;;;;;;;0.30;0.30;;;;;;;6.26;100.00;97514.59;5082470;28;20618;-79
2023/12/21 05:36:25;;;;;;;0.20;0.20;;;;;;;6.24;100.00;97502.50;5082224;28;20226;-79
2023/12/21 05:38:52;;;;;;;0.30;0.30;;;;;;;6.27;100.00;97497.91;5081462;28;20221;-79
2023/12/21 05:41:19;;;;;;;0.30;0.30;;;;;;;6.32;100.00;97482.72;5081896;28;20264;-80
2023/12/21 05:43:45;;;;;;;0.50;0.40;;;;;;;6.36;100.00;97484.19;5083071;28;20210;-80
2023/12/21 05:46:12;;;;;;;0.40;0.40;;;;;;;6.34;100.00;97475.56;5081874;28;20211;-80
2023/12/21 05:48:38;;;;;;;0.30;0.30;;;;;;;6.32;100.00;97482.72;5080811;28;20239;-79
2023/12/21 05:51:06;;;;;;;0.40;0.40;;;;;;;6.30;100.00;97491.63;5081777;28;20230;-79
2023/12/21 05:53:33;;;;;;;0.30;0.30;;;;;;;6.33;100.00;97489.66;5081314;28;20210;-79
2023/12/21 05:56:00;;;;;;;0.40;0.40;;;;;;;6.38;100.00;97477.09;5084057;28;20210;-79
2023/12/21 05:58:26;;;;;;;0.30;0.30;;;;;;;6.38;100.00;97473.59;5085329;28;20223;-78
2023/12/21 06:00:58;;;;;;;0.30;0.30;;;;;;;6.35;100.00;97461.50;5083979;28;20212;-80
2023/12/21 06:03:24;;;;;;;0.40;0.40;;;;;;;6.39;100.00;97460.38;5084544;28;20228;-79
2023/12/21 06:05:51;;;;;;;0.20;0.20;;;;;;;6.41;100.00;97455.06;5085218;28;20213;-79
2023/12/21 06:08:19;;;;;;;0.30;0.30;;;;;;;6.38;100.00;97456.09;5084412;28;20294;-79
2023/12/21 06:10:46;;;;;;;0.30;0.30;;;;;;;6.41;100.00;97453.25;5083446;28;20724;-78
2023/12/21 06:13:12;;;;;;;0.20;0.20;;;;;;;6.42;100.00;97443.59;5084229;28;20305;-81
2023/12/21 06:15:39;;;;;;;0.20;0.20;;;;;;;6.39;100.00;97447.28;5084396;28;20217;-80
2023/12/21 06:18:09;;;;;;;0.30;0.30;;;;;;;6.41;100.00;97445.38;5086390;28;20209;-81
2023/12/21 06:20:35;;;;;;;0.57;0.27;;;;;;;6.37;100.00;97433.41;5087513;28;20214;-81
2023/12/21 06:23:02;;;;;;;0.73;0.50;;;;;;;6.38;100.00;97424.59;5086770;28;20618;-81
2023/12/21 06:25:31;;;;;;;0.30;0.30;;;;;;;6.43;100.00;97419.91;5086148;28;20270;-78
2023/12/21 06:27:57;;;;;;;0.30;0.30;;;;;;;6.40;100.00;97406.97;5086449;28;20221;-78
2023/12/21 06:30:24;;;;;;;0.40;0.40;;;;;;;6.46;100.00;97408.34;5086110;28;20214;-81
2023/12/21 06:32:50;;;;;;;0.30;0.30;;;;;;;6.48;100.00;97402.03;5086124;28;20226;-79
2023/12/21 06:35:17;;;;;;;0.20;0.20;;;;;;;6.41;100.00;97398.13;5086333;28;20210;-79
2023/12/21 06:37:45;;;;;;;0.20;0.20;;;;;;;6.38;100.00;97393.09;5086544;28;20205;-81
2023/12/21 06:40:15;;;;;;;0.30;0.30;;;;;;;6.40;100.00;97385.97;5085802;28;20217;-78
2023/12/21 06:42:42;;;;;;;0.30;0.30;;;;;;;6.42;100.00;97386.69;5087364;28;20230;-81
2023/12/21 06:45:11;;;;;;;0.30;0.30;;;;;;;6.45;100.00;97391.75;5090274;28;20222;-81
2023/12/21 06:47:37;;;;;;;0.40;0.40;;;;;;;6.46;100.00;97385.56;5090339;28;20302;-80
2023/12/21 06:50:05;;;;;;;0.23;0.20;;;;;;;6.51;100.00;97394.00;5090389;28;20238;-81
2023/12/21 06:52:31;;;;;;;0.27;0.27;;;;;;;6.52;100.00;97390.41;5092020;28;20233;-81
2023/12/21 06:54:58;;;;;;;0.20;0.20;;;;;;;6.57;100.00;97385.72;5090831;28;20222;-79
2023/12/21 06:57:24;;;;;;;0.30;0.30;;;;;;;6.56;100.00;97391.91;5090991;28;20210;-79
2023/12/21 06:59:52;;;;;;;0.30;0.30;;;;;;;6.57;100.00;97392.75;5091359;28;20202;-80
2023/12/21 07:02:19;;;;;;;0.33;0.33;;;;;;;6.53;100.00;97376.34;5090580;28;20231;-80
2023/12/21 07:04:46;;;;;;;0.30;0.30;;;;;;;6.58;100.00;97369.03;5090708;28;20207;-80
2023/12/21 07:07:12;;;;;;;0.30;0.30;;;;;;;6.60;100.00;97375.00;5091544;28;20228;-79
2023/12/21 07:09:38;;;;;;;0.30;0.30;;;;;;;6.62;100.00;97370.50;5091639;28;20223;-79
2023/12/21 07:12:06;;;;;;;0.20;0.20;;;;;;;6.70;100.00;97370.84;5091369;28;20279;-79
2023/12/21 07:14:32;;;;;;;0.77;0.47;;;;;;;6.72;100.00;97363.69;5091863;28;20242;-79
2023/12/21 07:17:00;;;;;;;0.30;0.30;;;;;;;6.77;100.00;97371.28;5091576;28;20202;-79
2023/12/21 07:19:27;;;;;;;0.30;0.30;;;;;;;6.75;100.00;97363.50;5091380;28;20211;-80
2023/12/21 07:21:53;;;;;;;0.37;0.37;;;;;;;6.70;100.00;97360.34;5091204;28;20227;-79
2023/12/21 07:24:20;;;;;;;0.37;0.37;;;;;;;6.72;100.00;97355.00;5091160;28;20210;-80
2023/12/21 07:26:46;;;;;;;0.57;0.40;;;;;;;6.70;100.00;97357.72;5090789;28;20216;-80
2023/12/21 07:29:13;;;;;;;0.60;0.40;;;;;;;6.74;100.00;97353.09;5090959;28;20233;-80
2023/12/21 07:31:40;;;;;;;0.43;0.43;;;;;;;6.74;100.00;97359.22;5090298;28;20234;-80
2023/12/21 07:34:09;;;;;;;0.20;0.20;;;;;;;6.75;100.00;97352.16;5089035;28;20212;-80
2023/12/21 07:36:35;;;;;;;0.30;0.30;;;;;;;6.76;100.00;97336.31;5089653;28;20203;-80
2023/12/21 07:39:04;;;;;;;0.23;0.23;;;;;;;6.75;100.00;97339.03;5089890;28;20208;-79
2023/12/21 07:41:31;;;;;;;0.37;0.37;;;;;;;6.79;100.00;97336.09;5087476;28;20318;-80
2023/12/21 07:43:58;;;;;;;0.73;0.43;;;;;;;6.80;100.00;97336.94;5088025;28;20697;-80
2023/12/21 07:46:24;;;;;;;0.40;0.40;;;;;;;6.81;100.00;97328.97;5085535;28;20360;-80
2023/12/21 07:48:53;;;;;;;0.40;0.40;;;;;;;6.80;100.00;97321.19;5084005;28;20224;-79
2023/12/21 07:51:21;;;;;;;0.40;0.30;;;;;;;6.82;100.00;97327.16;5086222;28;20259;-79
2023/12/21 07:53:47;;;;;;;0.30;0.30;;;;;;;6.83;100.00;97327.06;5087108;28;20229;-79
2023/12/21 07:56:14;;;;;;;0.33;0.33;;;;;;;6.83;100.00;97326.25;5083060;28;20311;-77
2023/12/21 07:58:40;;;;;;;0.30;0.30;;;;;;;6.82;100.00;97314.88;5075336;28;20582;-78
2023/12/21 08:01:07;;;;;;;0.40;0.40;;;;;;;6.86;100.00;97316.38;5074893;28;20227;-78
2023/12/21 08:03:33;;;;;;;0.40;0.40;;;;;;;6.84;100.00;97315.63;5073997;28;20218;-77
2023/12/21 08:06:00;;;;;;;0.40;0.40;;;;;;;6.83;100.00;97321.81;5073149;28;20207;-77
2023/12/21 08:08:28;;;;;;;0.30;0.30;;;;;;;6.89;100.00;97320.59;5077061;28;20226;-79
2023/12/21 08:10:54;;;;;;;0.40;0.30;;;;;;;6.87;100.00;97323.31;5084053;28;20238;-80
2023/12/21 08:13:20;;;;;;;0.27;0.27;;;;;;;6.90;100.00;97312.56;5084140;28;20222;-80
2023/12/21 08:15:47;;;;;;;0.30;0.30;;;;;;;7.00;100.00;97302.28;5084421;28;20222;-80
2023/12/21 08:18:14;;;;;;;0.30;0.30;;;;;;;7.01;100.00;97302.19;5085129;28;20207;-79
2023/12/21 08:20:42;;;;;;;0.40;0.40;;;;;;;6.99;100.00;97300.59;5084793;28;20207;-79
2023/12/21 08:23:08;;;;;;;0.30;0.30;;;;;;;6.97;100.00;97300.69;5083609;28;20210;-79
2023/12/21 08:25:36;;;;;;;0.40;0.40;;;;;;;6.96;100.00;97301.66;5084347;28;20214;-79
2023/12/21 08:28:03;;;;;;;0.40;0.40;;;;;;;7.01;100.00;97293.47;5086062;28;20212;-79
2023/12/21 08:30:30;;;;;;;0.30;0.30;;;;;;;7.03;100.00;97292.41;5082511;28;20560;-79
2023/12/21 08:32:56;;;;;;;1.37;0.47;;;;;;;7.06;100.00;97292.22;5080695;28;20231;-80
2023/12/21 08:35:23;;;;;;;0.40;0.40;;;;;;;7.11;100.00;97284.00;5079884;28;20316;-79
2023/12/21 08:37:49;;;;;;;0.30;0.30;;;;;;;7.10;100.00;97288.44;5076684;28;20203;-80
2023/12/21 08:40:16;;;;;;;0.40;0.40;;;;;;;7.10;100.00;97288.44;5074998;28;20210;-79
2023/12/21 08:42:44;;;;;;;0.30;0.30;;;;;;;7.15;100.00;97291.56;5078052;28;20232;-78
2023/12/21 08:45:11;;;;;;;0.50;0.40;;;;;;;7.25;100.00;97295.25;5080033;28;20552;-78
2023/12/21 08:47:40;;;;;;;0.30;0.30;;;;;;;7.27;100.00;97285.47;5081795;28;20216;-79
2023/12/21 08:50:08;;;;;;;1.10;0.40;;;;;;;7.33;100.00;97292.91;5082066;28;20227;-80
2023/12/21 08:52:36;;;;;;;0.30;0.30;;;;;;;7.30;100.00;97285.25;5078969;28;20365;-78
2023/12/21 08:55:03;;;;;;;0.30;0.30;;;;;;;7.33;100.00;97282.41;5081447;28;20212;-80
2023/12/21 08:57:30;;;;;;;0.87;0.30;;;;;;;7.38;100.00;97281.16;5080977;28;20235;-80
2023/12/21 08:59:58;;;;;;;0.30;0.30;;;;;;;7.36;100.00;97290.09;5076396;28;20250;-78
2023/12/21 09:02:25;;;;;;;0.27;0.27;;;;;;;7.30;100.00;97282.63;5076630;28;20325;-78
2023/12/21 09:04:52;;;;;;;0.20;0.20;;;;;;;7.39;100.00;97263.59;5077136;28;20212;-78
2023/12/21 09:07:18;;;;;;;0.30;0.30;;;;;;;7.37;100.00;97241.84;5074961;28;20546;-77
2023/12/21 09:09:45;;;;;;;0.33;0.33;;;;;;;7.44;100.00;97240.44;5074738;28;20227;-77
2023/12/21 09:12:11;;;;;;;0.30;0.30;;;;;;;7.38;100.00;97245.31;5072746;28;20243;-77
2023/12/21 09:14:38;;;;;;;1.10;0.30;;;;;;;7.46;100.00;97249.06;5074017;28;20554;-78
2023/12/21 09:17:06;;;;;;;0.20;0.20;;;;;;;7.45;100.00;97239.50;5074899;28;20213;-80
2023/12/21 09:19:34;;;;;;;0.30;0.30;;;;;;;7.53;100.00;97231.91;5080344;28;20211;-80
2023/12/21 09:22:01;;;;;;;0.20;0.20;;;;;;;7.53;100.00;97224.03;5076397;28;20234;-78
2023/12/21 09:24:27;;;;;;;0.30;0.30;;;;;;;7.60;100.00;97214.75;5079350;28;20540;-79
2023/12/21 09:26:54;;;;;;;0.30;0.30;;;;;;;7.58;100.00;97206.13;5080962;28;20207;-79
2023/12/21 09:29:20;;;;;;;0.40;0.40;;;;;;;7.54;100.00;97194.16;5078952;28;20233;-78
2023/12/21 09:31:47;;;;;;;0.23;0.23;;;;;;;7.58;100.00;97185.09;5076021;28;20235;-78
2023/12/21 09:34:15;;;;;;;0.20;0.20;;;;;;;7.63;100.00;97193.47;5079114;28;20275;-78
2023/12/21 09:36:41;;;;;;;0.30;0.23;;;;;;;7.65;100.00;97196.88;5079282;28;20218;-78
2023/12/21 09:39:08;;;;;;;0.30;0.30;;;;;;;7.65;100.00;97202.13;5079698;28;20214;-79
2023/12/21 09:41:34;;;;;;;2.17;0.40;;;;;;;7.65;100.00;97187.16;5079203;28;20235;-78
2023/12/21 09:44:02;;;;;;;0.37;0.37;;;;;;;7.63;100.00;97188.22;5079748;28;20633;-78
2023/12/21 09:46:33;;;;;;;0.25;0.25;;;;;;;7.66;100.00;97185.38;5078672;28;20446;-79
2023/12/21 09:49:00;;;;;;;0.30;0.30;;;;;;;7.71;100.00;97156.97;5075651;28;20205;-82
2023/12/21 09:51:28;;;;;;;0.30;0.30;;;;;;;7.77;100.00;97156.53;5078560;28;20277;-82
2023/12/21 09:53:56;;;;;;;0.97;0.30;;;;;;;7.75;100.00;97150.50;5076321;28;20211;-78
2023/12/21 09:56:23;;;;;;;0.93;0.40;;;;;;;7.83;100.00;97145.56;5079218;28;20202;-78
2023/12/21 09:58:50;;;;;;;0.20;0.20;;;;;;;7.86;100.00;97129.53;5079140;28;20230;-79
2023/12/21 10:01:17;;;;;;;0.30;0.30;;;;;;;7.88;100.00;97143.41;5076625;28;20245;-78
2023/12/21 10:03:44;;;;;;;0.30;0.30;;;;;;;7.87;100.00;97154.88;5079470;28;20227;-78
2023/12/21 10:06:11;;;;;;;0.70;0.30;;;;;;;7.91;100.00;97156.34;5076500;28;20211;-81
2023/12/21 10:08:40;;;;;;;0.40;0.40;;;;;;;7.91;100.00;97156.34;5076663;28;20203;-80
2023/12/21 10:11:06;;;;;;;0.50;0.40;;;;;;;7.95;100.00;97153.34;5077100;28;20235;-79
2023/12/21 10:13:33;;;;;;;0.30;0.30;;;;;;;8.02;100.00;97136.16;5077207;28;20219;-80
2023/12/21 10:16:00;;;;;;;0.30;0.30;;;;;;;8.03;100.00;97113.34;5076959;28;20647;-78
2023/12/21 10:18:27;;;;;;;0.20;0.20;;;;;;;8.15;100.00;97101.88;5079450;28;20204;-80
2023/12/21 10:20:54;;;;;;;1.40;0.30;;;;;;;8.15;100.00;97081.66;5084068;28;20318;-79
2023/12/21 10:23:20;;;;;;;0.33;0.20;;;;;;;8.16;100.00;97062.31;5084465;28;20205;-79
2023/12/21 10:25:49;;;;;;;0.20;0.20;;;;;;;8.21;100.00;97057.53;5084773;28;20757;-79
2023/12/21 10:28:16;;;;;;;0.30;0.30;;;;;;;8.25;100.00;97058.97;5085919;28;20219;-79
2023/12/21 10:30:42;;;;;;;0.30;0.30;;;;;;;8.25;100.00;97045.81;5086510;28;20710;-79
2023/12/21 10:33:09;;;;;;;1.70;0.30;;;;;;;8.33;100.00;97053.13;5084263;28;20209;-80
2023/12/21 10:35:36;;;;;;;0.27;0.27;;;;;;;8.35;100.00;97032.78;5086201;28;20208;-80
2023/12/21 10:38:03;;;;;;;0.30;0.30;;;;;;;8.34;100.00;97029.28;5087604;28;20203;-79
2023/12/21 10:40:30;;;;;;;0.20;0.20;;;;;;;8.32;100.00;97012.78;5088859;28;20204;-79
2023/12/21 10:42:59;;;;;;;0.30;0.30;;;;;;;8.39;100.00;97003.47;5088949;28;20224;-79
2023/12/21 10:45:25;;;;;;;0.30;0.30;;;;;;;8.48;100.00;97004.53;5088813;28;20208;-79
2023/12/21 10:47:55;;;;;;;0.30;0.30;;;;;;;8.46;100.00;96970.41;5088653;28;20208;-79
2023/12/21 10:50:22;;;;;;;0.20;0.20;;;;;;;8.47;100.00;96963.38;5088530;28;20266;-80
2023/12/21 10:52:48;;;;;;;1.60;0.37;;;;;;;8.40;100.00;96955.09;5089227;28;20233;-79
2023/12/21 10:55:16;;;;;;;1.40;0.40;;;;;;;8.45;100.00;96949.50;5087084;28;20203;-79
2023/12/21 10:57:44;;;;;;;0.30;0.30;;;;;;;8.50;100.00;96952.63;5086450;28;20204;-80
2023/12/21 11:00:15;;;;;;;0.20;0.20;;;;;;;8.56;100.00;96944.22;5082277;28;20208;-78
2023/12/21 11:02:44;;;;;;;0.37;0.20;;;;;;;8.47;100.00;96926.50;5083658;28;20232;-80
2023/12/21 11:05:15;;;;;;;0.20;0.20;;;;;;;8.53;100.00;96923.38;5085228;28;20211;-79
2023/12/21 11:07:41;;;;;;;0.30;0.30;;;;;;;8.49;100.00;96924.59;5084411;28;20190;-79
2023/12/21 11:10:10;;;;;;;0.20;0.20;;;;;;;8.52;100.00;96917.28;5086729;28;20308;-79
2023/12/21 11:12:37;;;;;;;0.30;0.30;;;;;;;8.54;100.00;96896.09;5085325;28;20228;-79
2023/12/21 11:15:04;;;;;;;0.20;0.20;;;;;;;8.55;100.00;96895.13;5085891;28;20651;-79
2023/12/21 11:17:33;;;;;;;0.30;0.30;;;;;;;8.55;100.00;96884.59;5084464;28;20484;-79
2023/12/21 11:20:02;;;;;;;0.30;0.30;;;;;;;8.63;100.00;96882.19;5083780;28;20209;-80
2023/12/21 11:22:28;;;;;;;0.30;0.30;;;;;;;8.62;100.00;96870.00;5084548;28;20227;-79
2023/12/21 11:25:02;;;;;;;0.20;0.20;;;;;;;8.65;100.00;96860.06;5085871;28;20214;-79
2023/12/21 11:27:29;;;;;;;0.23;0.23;;;;;;;8.68;100.00;96866.84;5087012;28;20257;-79
2023/12/21 11:29:55;;;;;;;0.30;0.30;;;;;;;8.71;100.00;96863.97;5086045;28;20243;-79
2023/12/21 11:32:25;;;;;;;0.30;0.30;;;;;;;8.72;100.00;96852.47;5086165;28;20232;-80